sensor_id;sensor_type;location;lat;lon;timestamp;P1;durP1;ratioP1;P2;durP2;ratioP2
45252;SDS011;63171;50.520;30.486;2024-03-02T00:00:28;32.78;;;24.73;;
45252;SDS011;63171;50.520;30.486;2024-03-02T00:01:18;33.67;;;24.02;;
45252;SDS011;63171;50.520;30.486;2024-03-02T00:02:08;34.80;;;24.23;;
45252;SDS011;63171;50.520;30.486;2024-03-02T00:03:00;33.33;;;22.52;;
45252;SDS011;63171;50.520;30.486;2024-03-02T00:03:50;35.42;;;25.25;;
45252;SDS011;63171;50.520;30.486;2024-03-02T00:04:43;35.47;;;26.15;;
45252;SDS011;63171;50.520;30.486;2024-03-02T00:05:33;31.23;;;24.35;;
45252;SDS011;63171;50.520;30.486;2024-03-02T00:06:23;35.85;;;25.50;;
45252;SDS011;63171;50.520;30.486;2024-03-02T00:07:14;29.38;;;23.20;;
45252;SDS011;63171;50.520;30.486;2024-03-02T00:08:04;40.65;;;26.98;;
45252;SDS011;63171;50.520;30.486;2024-03-02T00:08:57;34.17;;;24.40;;
45252;SDS011;63171;50.520;30.486;2024-03-02T00:09:50;33.58;;;24.35;;
45252;SDS011;63171;50.520;30.486;2024-03-02T00:10:42;32.80;;;23.70;;
45252;SDS011;63171;50.520;30.486;2024-03-02T00:11:34;37.22;;;26.10;;
45252;SDS011;63171;50.520;30.486;2024-03-02T00:12:25;31.90;;;24.08;;
45252;SDS011;63171;50.520;30.486;2024-03-02T00:13:15;30.40;;;24.20;;
45252;SDS011;63171;50.520;30.486;2024-03-02T00:14:06;35.17;;;26.17;;
45252;SDS011;63171;50.520;30.486;2024-03-02T00:14:55;41.85;;;25.80;;
45252;SDS011;63171;50.520;30.486;2024-03-02T00:15:46;34.60;;;25.70;;
45252;SDS011;63171;50.520;30.486;2024-03-02T00:16:39;34.83;;;26.15;;
45252;SDS011;63171;50.520;30.486;2024-03-02T00:17:29;41.95;;;25.52;;
45252;SDS011;63171;50.520;30.486;2024-03-02T00:18:19;30.45;;;24.48;;
45252;SDS011;63171;50.520;30.486;2024-03-02T00:19:11;35.75;;;25.58;;
45252;SDS011;63171;50.520;30.486;2024-03-02T00:20:02;41.28;;;25.55;;
45252;SDS011;63171;50.520;30.486;2024-03-02T00:20:54;32.97;;;25.75;;
45252;SDS011;63171;50.520;30.486;2024-03-02T00:21:45;32.50;;;22.90;;
45252;SDS011;63171;50.520;30.486;2024-03-02T00:22:36;32.05;;;25.10;;
45252;SDS011;63171;50.520;30.486;2024-03-02T00:23:27;36.35;;;26.50;;
45252;SDS011;63171;50.520;30.486;2024-03-02T00:24:19;39.63;;;27.30;;
45252;SDS011;63171;50.520;30.486;2024-03-02T00:25:12;35.22;;;25.60;;
45252;SDS011;63171;50.520;30.486;2024-03-02T00:26:01;31.30;;;24.65;;
45252;SDS011;63171;50.520;30.486;2024-03-02T00:26:53;31.30;;;24.55;;
45252;SDS011;63171;50.520;30.486;2024-03-02T00:27:43;32.97;;;24.13;;
45252;SDS011;63171;50.520;30.486;2024-03-02T00:28:37;35.03;;;25.05;;
45252;SDS011;63171;50.520;30.486;2024-03-02T00:29:32;33.25;;;25.65;;
45252;SDS011;63171;50.520;30.486;2024-03-02T00:30:34;31.42;;;23.58;;
45252;SDS011;63171;50.520;30.486;2024-03-02T00:31:35;31.00;;;23.08;;
45252;SDS011;63171;50.520;30.486;2024-03-02T00:32:26;30.48;;;22.95;;
45252;SDS011;63171;50.520;30.486;2024-03-02T00:33:17;32.13;;;24.98;;
45252;SDS011;63171;50.520;30.486;2024-03-02T00:34:08;33.15;;;25.10;;
45252;SDS011;63171;50.520;30.486;2024-03-02T00:35:05;30.52;;;23.17;;
45252;SDS011;63171;50.520;30.486;2024-03-02T00:35:55;30.83;;;25.08;;
45252;SDS011;63171;50.520;30.486;2024-03-02T00:37:36;32.55;;;23.58;;
45252;SDS011;63171;50.520;30.486;2024-03-02T00:38:25;34.78;;;22.88;;
45252;SDS011;63171;50.520;30.486;2024-03-02T00:39:16;28.08;;;21.83;;
45252;SDS011;63171;50.520;30.486;2024-03-02T00:40:07;32.88;;;23.67;;
45252;SDS011;63171;50.520;30.486;2024-03-02T00:40:58;33.38;;;23.30;;
45252;SDS011;63171;50.520;30.486;2024-03-02T00:41:48;34.40;;;23.35;;
45252;SDS011;63171;50.520;30.486;2024-03-02T00:42:39;26.35;;;20.60;;
45252;SDS011;63171;50.520;30.486;2024-03-02T00:43:37;29.60;;;22.70;;
45252;SDS011;63171;50.520;30.486;2024-03-02T00:44:30;28.10;;;21.05;;
45252;SDS011;63171;50.520;30.486;2024-03-02T00:45:25;42.78;;;26.27;;
45252;SDS011;63171;50.520;30.486;2024-03-02T00:47:05;30.52;;;21.90;;
45252;SDS011;63171;50.520;30.486;2024-03-02T00:47:56;32.88;;;24.40;;
45252;SDS011;63171;50.520;30.486;2024-03-02T00:48:56;32.88;;;21.65;;
45252;SDS011;63171;50.520;30.486;2024-03-02T00:49:46;30.02;;;23.17;;
45252;SDS011;63171;50.520;30.486;2024-03-02T00:50:39;33.03;;;22.25;;
45252;SDS011;63171;50.520;30.486;2024-03-02T00:51:29;28.60;;;21.63;;
45252;SDS011;63171;50.520;30.486;2024-03-02T00:52:22;29.35;;;22.65;;
45252;SDS011;63171;50.520;30.486;2024-03-02T00:53:13;27.10;;;21.08;;
45252;SDS011;63171;50.520;30.486;2024-03-02T00:54:04;32.40;;;21.77;;
45252;SDS011;63171;50.520;30.486;2024-03-02T00:54:55;34.83;;;23.42;;
45252;SDS011;63171;50.520;30.486;2024-03-02T00:55:47;36.70;;;22.80;;
45252;SDS011;63171;50.520;30.486;2024-03-02T00:57:27;30.85;;;22.77;;
45252;SDS011;63171;50.520;30.486;2024-03-02T00:58:21;33.00;;;23.80;;
45252;SDS011;63171;50.520;30.486;2024-03-02T00:59:11;31.88;;;24.17;;
45252;SDS011;63171;50.520;30.486;2024-03-02T01:00:01;34.45;;;23.45;;
45252;SDS011;63171;50.520;30.486;2024-03-02T01:03:40;35.47;;;25.00;;
45252;SDS011;63171;50.520;30.486;2024-03-02T01:04:30;33.95;;;24.48;;
45252;SDS011;63171;50.520;30.486;2024-03-02T01:05:21;31.75;;;23.85;;
45252;SDS011;63171;50.520;30.486;2024-03-02T01:06:12;35.20;;;24.50;;
45252;SDS011;63171;50.520;30.486;2024-03-02T01:07:02;32.65;;;25.00;;
45252;SDS011;63171;50.520;30.486;2024-03-02T01:07:53;37.05;;;25.65;;
45252;SDS011;63171;50.520;30.486;2024-03-02T01:08:43;34.17;;;24.65;;
45252;SDS011;63171;50.520;30.486;2024-03-02T01:09:32;35.50;;;23.92;;
45252;SDS011;63171;50.520;30.486;2024-03-02T01:10:23;39.28;;;26.48;;
45252;SDS011;63171;50.520;30.486;2024-03-02T01:11:13;34.20;;;23.77;;
45252;SDS011;63171;50.520;30.486;2024-03-02T01:12:03;34.55;;;24.77;;
45252;SDS011;63171;50.520;30.486;2024-03-02T01:12:53;37.10;;;25.20;;
45252;SDS011;63171;50.520;30.486;2024-03-02T01:13:43;31.73;;;22.73;;
45252;SDS011;63171;50.520;30.486;2024-03-02T01:14:33;32.10;;;22.10;;
45252;SDS011;63171;50.520;30.486;2024-03-02T01:15:24;36.15;;;25.35;;
45252;SDS011;63171;50.520;30.486;2024-03-02T01:16:14;34.00;;;25.98;;
45252;SDS011;63171;50.520;30.486;2024-03-02T01:17:05;31.35;;;24.92;;
45252;SDS011;63171;50.520;30.486;2024-03-02T01:17:55;33.33;;;25.58;;
45252;SDS011;63171;50.520;30.486;2024-03-02T01:18:45;31.83;;;24.45;;
45252;SDS011;63171;50.520;30.486;2024-03-02T01:19:36;31.10;;;22.02;;
45252;SDS011;63171;50.520;30.486;2024-03-02T01:20:25;33.38;;;26.40;;
45252;SDS011;63171;50.520;30.486;2024-03-02T01:21:17;33.30;;;25.70;;
45252;SDS011;63171;50.520;30.486;2024-03-02T01:22:07;31.90;;;24.00;;
45252;SDS011;63171;50.520;30.486;2024-03-02T01:22:57;33.30;;;24.60;;
45252;SDS011;63171;50.520;30.486;2024-03-02T01:23:47;33.80;;;25.80;;
45252;SDS011;63171;50.520;30.486;2024-03-02T01:24:38;38.88;;;26.13;;
45252;SDS011;63171;50.520;30.486;2024-03-02T01:25:27;35.45;;;24.77;;
45252;SDS011;63171;50.520;30.486;2024-03-02T01:26:17;32.40;;;27.42;;
45252;SDS011;63171;50.520;30.486;2024-03-02T01:27:08;32.67;;;25.33;;
45252;SDS011;63171;50.520;30.486;2024-03-02T01:27:58;37.42;;;25.70;;
45252;SDS011;63171;50.520;30.486;2024-03-02T01:28:48;35.38;;;24.27;;
45252;SDS011;63171;50.520;30.486;2024-03-02T01:29:39;40.70;;;25.08;;
45252;SDS011;63171;50.520;30.486;2024-03-02T01:30:28;37.05;;;24.85;;
45252;SDS011;63171;50.520;30.486;2024-03-02T01:31:18;31.50;;;23.02;;
45252;SDS011;63171;50.520;30.486;2024-03-02T01:32:09;31.65;;;25.35;;
45252;SDS011;63171;50.520;30.486;2024-03-02T01:32:59;31.60;;;23.95;;
45252;SDS011;63171;50.520;30.486;2024-03-02T01:35:29;31.88;;;22.20;;
45252;SDS011;63171;50.520;30.486;2024-03-02T01:36:20;32.63;;;23.75;;
45252;SDS011;63171;50.520;30.486;2024-03-02T01:37:10;32.47;;;24.13;;
45252;SDS011;63171;50.520;30.486;2024-03-02T01:38:00;33.72;;;24.40;;
45252;SDS011;63171;50.520;30.486;2024-03-02T01:38:50;33.45;;;21.83;;
45252;SDS011;63171;50.520;30.486;2024-03-02T01:39:41;33.75;;;24.48;;
45252;SDS011;63171;50.520;30.486;2024-03-02T01:40:31;27.85;;;21.65;;
45252;SDS011;63171;50.520;30.486;2024-03-02T01:41:21;37.17;;;25.88;;
45252;SDS011;63171;50.520;30.486;2024-03-02T01:42:12;33.75;;;23.38;;
45252;SDS011;63171;50.520;30.486;2024-03-02T01:43:02;29.42;;;24.58;;
45252;SDS011;63171;50.520;30.486;2024-03-02T01:43:53;35.55;;;25.13;;
45252;SDS011;63171;50.520;30.486;2024-03-02T01:44:44;30.55;;;23.23;;
45252;SDS011;63171;50.520;30.486;2024-03-02T01:45:33;29.98;;;22.60;;
45252;SDS011;63171;50.520;30.486;2024-03-02T01:46:25;29.65;;;24.42;;
45252;SDS011;63171;50.520;30.486;2024-03-02T01:47:16;29.58;;;24.48;;
45252;SDS011;63171;50.520;30.486;2024-03-02T01:48:06;32.33;;;26.00;;
45252;SDS011;63171;50.520;30.486;2024-03-02T01:48:56;32.08;;;24.00;;
45252;SDS011;63171;50.520;30.486;2024-03-02T01:49:47;29.35;;;23.67;;
45252;SDS011;63171;50.520;30.486;2024-03-02T01:50:36;34.63;;;23.15;;
45252;SDS011;63171;50.520;30.486;2024-03-02T01:51:28;29.50;;;24.13;;
45252;SDS011;63171;50.520;30.486;2024-03-02T01:52:18;33.95;;;23.50;;
45252;SDS011;63171;50.520;30.486;2024-03-02T01:53:08;35.20;;;24.30;;
45252;SDS011;63171;50.520;30.486;2024-03-02T01:53:58;30.38;;;23.40;;
45252;SDS011;63171;50.520;30.486;2024-03-02T01:54:49;30.17;;;23.33;;
45252;SDS011;63171;50.520;30.486;2024-03-02T01:55:39;32.67;;;25.83;;
45252;SDS011;63171;50.520;30.486;2024-03-02T01:56:29;32.08;;;24.52;;
45252;SDS011;63171;50.520;30.486;2024-03-02T01:57:19;33.33;;;24.48;;
45252;SDS011;63171;50.520;30.486;2024-03-02T01:58:09;34.30;;;24.80;;
45252;SDS011;63171;50.520;30.486;2024-03-02T01:59:00;32.58;;;24.40;;
45252;SDS011;63171;50.520;30.486;2024-03-02T01:59:50;32.78;;;25.23;;
45252;SDS011;63171;50.520;30.486;2024-03-02T02:00:40;34.55;;;25.35;;
45252;SDS011;63171;50.520;30.486;2024-03-02T02:01:31;35.60;;;27.38;;
45252;SDS011;63171;50.520;30.486;2024-03-02T02:02:20;34.92;;;25.42;;
45252;SDS011;63171;50.520;30.486;2024-03-02T02:03:10;36.58;;;26.33;;
45252;SDS011;63171;50.520;30.486;2024-03-02T02:04:01;35.83;;;23.80;;
45252;SDS011;63171;50.520;30.486;2024-03-02T02:04:51;35.20;;;24.95;;
45252;SDS011;63171;50.520;30.486;2024-03-02T02:05:41;30.48;;;24.15;;
45252;SDS011;63171;50.520;30.486;2024-03-02T02:06:33;31.25;;;24.60;;
45252;SDS011;63171;50.520;30.486;2024-03-02T02:07:23;32.85;;;24.15;;
45252;SDS011;63171;50.520;30.486;2024-03-02T02:08:13;33.60;;;23.88;;
45252;SDS011;63171;50.520;30.486;2024-03-02T02:09:04;33.75;;;25.45;;
45252;SDS011;63171;50.520;30.486;2024-03-02T02:09:55;28.77;;;22.08;;
45252;SDS011;63171;50.520;30.486;2024-03-02T02:10:45;32.85;;;25.92;;
45252;SDS011;63171;50.520;30.486;2024-03-02T02:11:35;31.70;;;26.35;;
45252;SDS011;63171;50.520;30.486;2024-03-02T02:12:25;35.15;;;26.70;;
45252;SDS011;63171;50.520;30.486;2024-03-02T02:13:15;34.63;;;26.48;;
45252;SDS011;63171;50.520;30.486;2024-03-02T02:14:06;34.35;;;25.65;;
45252;SDS011;63171;50.520;30.486;2024-03-02T02:14:56;34.67;;;25.80;;
45252;SDS011;63171;50.520;30.486;2024-03-02T02:15:45;36.30;;;25.10;;
45252;SDS011;63171;50.520;30.486;2024-03-02T02:16:36;35.20;;;26.58;;
45252;SDS011;63171;50.520;30.486;2024-03-02T02:17:26;38.92;;;24.98;;
45252;SDS011;63171;50.520;30.486;2024-03-02T02:18:16;32.22;;;24.80;;
45252;SDS011;63171;50.520;30.486;2024-03-02T02:19:07;30.42;;;24.10;;
45252;SDS011;63171;50.520;30.486;2024-03-02T02:19:56;29.15;;;23.75;;
45252;SDS011;63171;50.520;30.486;2024-03-02T02:20:46;33.47;;;25.90;;
45252;SDS011;63171;50.520;30.486;2024-03-02T02:21:38;32.75;;;25.40;;
45252;SDS011;63171;50.520;30.486;2024-03-02T02:22:31;33.60;;;24.88;;
45252;SDS011;63171;50.520;30.486;2024-03-02T02:23:21;31.40;;;24.35;;
45252;SDS011;63171;50.520;30.486;2024-03-02T02:24:12;36.22;;;26.38;;
45252;SDS011;63171;50.520;30.486;2024-03-02T02:25:02;32.75;;;25.67;;
45252;SDS011;63171;50.520;30.486;2024-03-02T02:25:53;35.55;;;24.83;;
45252;SDS011;63171;50.520;30.486;2024-03-02T02:26:43;40.53;;;27.90;;
45252;SDS011;63171;50.520;30.486;2024-03-02T02:27:33;35.40;;;26.85;;
45252;SDS011;63171;50.520;30.486;2024-03-02T02:28:25;34.13;;;24.02;;
45252;SDS011;63171;50.520;30.486;2024-03-02T02:29:16;35.60;;;24.60;;
45252;SDS011;63171;50.520;30.486;2024-03-02T02:30:06;40.28;;;25.83;;
45252;SDS011;63171;50.520;30.486;2024-03-02T02:30:57;30.60;;;25.30;;
45252;SDS011;63171;50.520;30.486;2024-03-02T02:31:49;32.78;;;23.48;;
45252;SDS011;63171;50.520;30.486;2024-03-02T02:32:39;37.78;;;27.13;;
45252;SDS011;63171;50.520;30.486;2024-03-02T02:33:29;30.83;;;23.80;;
45252;SDS011;63171;50.520;30.486;2024-03-02T02:34:19;31.98;;;23.30;;
45252;SDS011;63171;50.520;30.486;2024-03-02T02:35:10;34.05;;;25.60;;
45252;SDS011;63171;50.520;30.486;2024-03-02T02:36:01;34.47;;;24.90;;
45252;SDS011;63171;50.520;30.486;2024-03-02T02:36:52;34.97;;;24.25;;
45252;SDS011;63171;50.520;30.486;2024-03-02T02:37:43;33.22;;;26.92;;
45252;SDS011;63171;50.520;30.486;2024-03-02T02:38:35;32.20;;;24.48;;
45252;SDS011;63171;50.520;30.486;2024-03-02T02:39:27;34.50;;;24.67;;
45252;SDS011;63171;50.520;30.486;2024-03-02T02:40:17;34.03;;;25.30;;
45252;SDS011;63171;50.520;30.486;2024-03-02T02:41:08;33.88;;;26.35;;
45252;SDS011;63171;50.520;30.486;2024-03-02T02:41:58;32.20;;;25.15;;
45252;SDS011;63171;50.520;30.486;2024-03-02T02:42:50;31.30;;;24.65;;
45252;SDS011;63171;50.520;30.486;2024-03-02T02:43:41;35.10;;;24.08;;
45252;SDS011;63171;50.520;30.486;2024-03-02T02:44:31;36.53;;;25.05;;
45252;SDS011;63171;50.520;30.486;2024-03-02T02:45:22;39.22;;;26.23;;
45252;SDS011;63171;50.520;30.486;2024-03-02T02:46:12;39.70;;;27.45;;
45252;SDS011;63171;50.520;30.486;2024-03-02T02:47:01;31.45;;;23.70;;
45252;SDS011;63171;50.520;30.486;2024-03-02T02:47:52;32.63;;;24.05;;
45252;SDS011;63171;50.520;30.486;2024-03-02T02:48:42;36.90;;;24.40;;
45252;SDS011;63171;50.520;30.486;2024-03-02T02:49:31;30.95;;;24.35;;
45252;SDS011;63171;50.520;30.486;2024-03-02T02:50:22;36.25;;;27.50;;
45252;SDS011;63171;50.520;30.486;2024-03-02T02:51:12;32.42;;;24.50;;
45252;SDS011;63171;50.520;30.486;2024-03-02T02:52:03;31.98;;;23.63;;
45252;SDS011;63171;50.520;30.486;2024-03-02T02:52:54;33.40;;;25.20;;
45252;SDS011;63171;50.520;30.486;2024-03-02T02:53:43;29.95;;;22.75;;
45252;SDS011;63171;50.520;30.486;2024-03-02T02:54:33;34.88;;;25.80;;
45252;SDS011;63171;50.520;30.486;2024-03-02T02:55:24;32.95;;;24.50;;
45252;SDS011;63171;50.520;30.486;2024-03-02T02:56:14;31.30;;;24.52;;
45252;SDS011;63171;50.520;30.486;2024-03-02T02:57:04;30.98;;;25.17;;
45252;SDS011;63171;50.520;30.486;2024-03-02T02:57:54;32.75;;;24.95;;
45252;SDS011;63171;50.520;30.486;2024-03-02T02:58:50;31.83;;;25.02;;
45252;SDS011;63171;50.520;30.486;2024-03-02T02:59:40;39.33;;;27.00;;
45252;SDS011;63171;50.520;30.486;2024-03-02T03:00:32;30.08;;;23.55;;
45252;SDS011;63171;50.520;30.486;2024-03-02T03:02:11;27.20;;;22.73;;
45252;SDS011;63171;50.520;30.486;2024-03-02T03:03:01;30.77;;;24.98;;
45252;SDS011;63171;50.520;30.486;2024-03-02T03:04:42;34.45;;;25.40;;
45252;SDS011;63171;50.520;30.486;2024-03-02T03:05:32;33.08;;;25.00;;
45252;SDS011;63171;50.520;30.486;2024-03-02T03:06:21;31.98;;;24.05;;
45252;SDS011;63171;50.520;30.486;2024-03-02T03:07:13;33.97;;;24.40;;
45252;SDS011;63171;50.520;30.486;2024-03-02T03:08:03;35.97;;;26.95;;
45252;SDS011;63171;50.520;30.486;2024-03-02T03:08:54;32.33;;;24.83;;
45252;SDS011;63171;50.520;30.486;2024-03-02T03:10:33;32.15;;;23.42;;
45252;SDS011;63171;50.520;30.486;2024-03-02T03:11:24;36.63;;;26.70;;
45252;SDS011;63171;50.520;30.486;2024-03-02T03:12:15;35.45;;;27.15;;
45252;SDS011;63171;50.520;30.486;2024-03-02T03:13:05;30.92;;;23.98;;
45252;SDS011;63171;50.520;30.486;2024-03-02T03:13:57;36.45;;;25.58;;
45252;SDS011;63171;50.520;30.486;2024-03-02T03:14:47;33.65;;;25.15;;
45252;SDS011;63171;50.520;30.486;2024-03-02T03:15:37;31.27;;;25.20;;
45252;SDS011;63171;50.520;30.486;2024-03-02T03:16:27;33.63;;;25.00;;
45252;SDS011;63171;50.520;30.486;2024-03-02T03:17:17;42.83;;;27.30;;
45252;SDS011;63171;50.520;30.486;2024-03-02T03:18:08;33.33;;;23.88;;
45252;SDS011;63171;50.520;30.486;2024-03-02T03:18:59;30.60;;;24.02;;
45252;SDS011;63171;50.520;30.486;2024-03-02T03:19:50;36.72;;;25.73;;
45252;SDS011;63171;50.520;30.486;2024-03-02T03:20:39;41.25;;;25.88;;
45252;SDS011;63171;50.520;30.486;2024-03-02T03:21:29;35.08;;;25.63;;
45252;SDS011;63171;50.520;30.486;2024-03-02T03:22:21;34.08;;;23.92;;
45252;SDS011;63171;50.520;30.486;2024-03-02T03:23:11;37.60;;;23.52;;
45252;SDS011;63171;50.520;30.486;2024-03-02T03:24:04;33.78;;;24.63;;
45252;SDS011;63171;50.520;30.486;2024-03-02T03:24:55;29.77;;;23.60;;
45252;SDS011;63171;50.520;30.486;2024-03-02T03:25:45;38.42;;;25.05;;
45252;SDS011;63171;50.520;30.486;2024-03-02T03:26:35;36.05;;;25.95;;
45252;SDS011;63171;50.520;30.486;2024-03-02T03:27:26;35.10;;;24.42;;
45252;SDS011;63171;50.520;30.486;2024-03-02T03:28:16;35.38;;;25.65;;
45252;SDS011;63171;50.520;30.486;2024-03-02T03:29:07;39.53;;;26.33;;
45252;SDS011;63171;50.520;30.486;2024-03-02T03:29:57;37.03;;;26.95;;
45252;SDS011;63171;50.520;30.486;2024-03-02T03:30:46;33.92;;;26.38;;
45252;SDS011;63171;50.520;30.486;2024-03-02T03:31:37;29.83;;;23.95;;
45252;SDS011;63171;50.520;30.486;2024-03-02T03:32:27;36.08;;;28.65;;
45252;SDS011;63171;50.520;30.486;2024-03-02T03:33:17;37.13;;;25.10;;
45252;SDS011;63171;50.520;30.486;2024-03-02T03:34:08;37.78;;;27.80;;
45252;SDS011;63171;50.520;30.486;2024-03-02T03:34:57;40.75;;;28.55;;
45252;SDS011;63171;50.520;30.486;2024-03-02T03:35:47;36.22;;;27.67;;
45252;SDS011;63171;50.520;30.486;2024-03-02T03:36:38;33.67;;;25.83;;
45252;SDS011;63171;50.520;30.486;2024-03-02T03:37:29;42.38;;;28.63;;
45252;SDS011;63171;50.520;30.486;2024-03-02T03:38:22;40.78;;;27.80;;
45252;SDS011;63171;50.520;30.486;2024-03-02T03:39:12;35.65;;;27.42;;
45252;SDS011;63171;50.520;30.486;2024-03-02T03:40:02;32.78;;;27.23;;
45252;SDS011;63171;50.520;30.486;2024-03-02T03:40:59;37.17;;;27.38;;
45252;SDS011;63171;50.520;30.486;2024-03-02T03:41:49;39.05;;;28.88;;
45252;SDS011;63171;50.520;30.486;2024-03-02T03:42:39;35.70;;;27.42;;
45252;SDS011;63171;50.520;30.486;2024-03-02T03:43:29;40.38;;;26.70;;
45252;SDS011;63171;50.520;30.486;2024-03-02T03:44:19;39.80;;;28.67;;
45252;SDS011;63171;50.520;30.486;2024-03-02T03:45:09;37.35;;;29.55;;
45252;SDS011;63171;50.520;30.486;2024-03-02T03:45:59;38.22;;;28.38;;
45252;SDS011;63171;50.520;30.486;2024-03-02T03:46:50;43.03;;;30.42;;
45252;SDS011;63171;50.520;30.486;2024-03-02T03:47:40;37.15;;;26.88;;
45252;SDS011;63171;50.520;30.486;2024-03-02T03:48:29;39.10;;;28.25;;
45252;SDS011;63171;50.520;30.486;2024-03-02T03:49:20;36.58;;;27.70;;
45252;SDS011;63171;50.520;30.486;2024-03-02T03:50:10;36.67;;;28.33;;
45252;SDS011;63171;50.520;30.486;2024-03-02T03:51:00;37.85;;;27.42;;
45252;SDS011;63171;50.520;30.486;2024-03-02T03:51:50;38.22;;;28.98;;
45252;SDS011;63171;50.520;30.486;2024-03-02T03:52:41;36.78;;;28.70;;
45252;SDS011;63171;50.520;30.486;2024-03-02T03:53:31;42.03;;;28.77;;
45252;SDS011;63171;50.520;30.486;2024-03-02T03:54:21;35.30;;;27.70;;
45252;SDS011;63171;50.520;30.486;2024-03-02T03:55:11;35.95;;;27.45;;
45252;SDS011;63171;50.520;30.486;2024-03-02T03:56:01;46.15;;;32.38;;
45252;SDS011;63171;50.520;30.486;2024-03-02T03:56:52;37.35;;;29.65;;
45252;SDS011;63171;50.520;30.486;2024-03-02T03:57:42;39.30;;;27.92;;
45252;SDS011;63171;50.520;30.486;2024-03-02T03:58:31;41.67;;;29.92;;
45252;SDS011;63171;50.520;30.486;2024-03-02T03:59:22;37.10;;;28.33;;
45252;SDS011;63171;50.520;30.486;2024-03-02T04:00:12;38.90;;;27.75;;
45252;SDS011;63171;50.520;30.486;2024-03-02T04:01:03;44.88;;;29.80;;
45252;SDS011;63171;50.520;30.486;2024-03-02T04:01:53;37.55;;;29.00;;
45252;SDS011;63171;50.520;30.486;2024-03-02T04:02:43;40.60;;;29.58;;
45252;SDS011;63171;50.520;30.486;2024-03-02T04:03:34;33.58;;;29.00;;
45252;SDS011;63171;50.520;30.486;2024-03-02T04:04:24;36.80;;;28.50;;
45252;SDS011;63171;50.520;30.486;2024-03-02T04:05:15;36.05;;;28.15;;
45252;SDS011;63171;50.520;30.486;2024-03-02T04:06:04;40.83;;;29.42;;
45252;SDS011;63171;50.520;30.486;2024-03-02T04:06:55;39.35;;;29.00;;
45252;SDS011;63171;50.520;30.486;2024-03-02T04:07:46;38.97;;;29.75;;
45252;SDS011;63171;50.520;30.486;2024-03-02T04:08:36;37.10;;;29.00;;
45252;SDS011;63171;50.520;30.486;2024-03-02T04:09:27;37.60;;;27.52;;
45252;SDS011;63171;50.520;30.486;2024-03-02T04:10:17;39.60;;;30.35;;
45252;SDS011;63171;50.520;30.486;2024-03-02T04:11:07;38.00;;;29.02;;
45252;SDS011;63171;50.520;30.486;2024-03-02T04:11:57;42.80;;;29.13;;
45252;SDS011;63171;50.520;30.486;2024-03-02T04:12:49;37.85;;;29.30;;
45252;SDS011;63171;50.520;30.486;2024-03-02T04:13:39;39.33;;;28.38;;
45252;SDS011;63171;50.520;30.486;2024-03-02T04:14:29;40.28;;;29.30;;
45252;SDS011;63171;50.520;30.486;2024-03-02T04:15:19;38.42;;;28.10;;
45252;SDS011;63171;50.520;30.486;2024-03-02T04:16:10;37.47;;;28.70;;
45252;SDS011;63171;50.520;30.486;2024-03-02T04:17:00;38.05;;;27.63;;
45252;SDS011;63171;50.520;30.486;2024-03-02T04:17:50;29.17;;;25.17;;
45252;SDS011;63171;50.520;30.486;2024-03-02T04:18:43;35.45;;;27.52;;
45252;SDS011;63171;50.520;30.486;2024-03-02T04:19:32;37.20;;;27.80;;
45252;SDS011;63171;50.520;30.486;2024-03-02T04:20:22;38.55;;;26.73;;
45252;SDS011;63171;50.520;30.486;2024-03-02T04:21:13;34.90;;;26.63;;
45252;SDS011;63171;50.520;30.486;2024-03-02T04:22:03;35.83;;;27.00;;
45252;SDS011;63171;50.520;30.486;2024-03-02T04:22:55;40.40;;;28.38;;
45252;SDS011;63171;50.520;30.486;2024-03-02T04:23:45;41.40;;;27.35;;
45252;SDS011;63171;50.520;30.486;2024-03-02T04:24:35;32.53;;;26.05;;
45252;SDS011;63171;50.520;30.486;2024-03-02T04:25:25;38.65;;;27.42;;
45252;SDS011;63171;50.520;30.486;2024-03-02T04:26:15;36.58;;;27.95;;
45252;SDS011;63171;50.520;30.486;2024-03-02T04:27:08;33.13;;;26.15;;
45252;SDS011;63171;50.520;30.486;2024-03-02T04:27:58;35.58;;;25.40;;
45252;SDS011;63171;50.520;30.486;2024-03-02T04:28:48;36.10;;;28.80;;
45252;SDS011;63171;50.520;30.486;2024-03-02T04:29:39;34.90;;;26.02;;
45252;SDS011;63171;50.520;30.486;2024-03-02T04:30:29;35.85;;;27.40;;
45252;SDS011;63171;50.520;30.486;2024-03-02T04:31:18;38.13;;;30.02;;
45252;SDS011;63171;50.520;30.486;2024-03-02T04:32:09;40.13;;;29.17;;
45252;SDS011;63171;50.520;30.486;2024-03-02T04:32:59;36.35;;;27.95;;
45252;SDS011;63171;50.520;30.486;2024-03-02T04:33:51;42.42;;;27.92;;
45252;SDS011;63171;50.520;30.486;2024-03-02T04:34:41;36.35;;;26.42;;
45252;SDS011;63171;50.520;30.486;2024-03-02T04:35:31;34.72;;;27.10;;
45252;SDS011;63171;50.520;30.486;2024-03-02T04:36:21;42.38;;;27.42;;
45252;SDS011;63171;50.520;30.486;2024-03-02T04:37:12;39.05;;;25.05;;
45252;SDS011;63171;50.520;30.486;2024-03-02T04:38:05;36.85;;;26.95;;
45252;SDS011;63171;50.520;30.486;2024-03-02T04:38:56;34.58;;;28.10;;
45252;SDS011;63171;50.520;30.486;2024-03-02T04:39:45;33.17;;;25.38;;
45252;SDS011;63171;50.520;30.486;2024-03-02T04:40:35;34.88;;;26.60;;
45252;SDS011;63171;50.520;30.486;2024-03-02T04:41:26;35.25;;;26.48;;
45252;SDS011;63171;50.520;30.486;2024-03-02T04:42:17;36.47;;;28.02;;
45252;SDS011;63171;50.520;30.486;2024-03-02T04:43:07;41.60;;;27.38;;
45252;SDS011;63171;50.520;30.486;2024-03-02T04:43:58;35.63;;;26.95;;
45252;SDS011;63171;50.520;30.486;2024-03-02T04:44:48;38.03;;;27.23;;
45252;SDS011;63171;50.520;30.486;2024-03-02T04:45:38;34.70;;;27.50;;
45252;SDS011;63171;50.520;30.486;2024-03-02T04:46:29;33.33;;;26.63;;
45252;SDS011;63171;50.520;30.486;2024-03-02T04:47:18;31.85;;;24.45;;
45252;SDS011;63171;50.520;30.486;2024-03-02T04:48:08;31.00;;;25.30;;
45252;SDS011;63171;50.520;30.486;2024-03-02T04:48:59;36.95;;;28.58;;
45252;SDS011;63171;50.520;30.486;2024-03-02T04:49:49;33.55;;;25.98;;
45252;SDS011;63171;50.520;30.486;2024-03-02T04:50:40;31.10;;;25.05;;
45252;SDS011;63171;50.520;30.486;2024-03-02T04:51:30;40.58;;;27.77;;
45252;SDS011;63171;50.520;30.486;2024-03-02T04:52:20;39.45;;;27.30;;
45252;SDS011;63171;50.520;30.486;2024-03-02T04:53:12;37.78;;;29.73;;
45252;SDS011;63171;50.520;30.486;2024-03-02T04:54:02;36.25;;;27.77;;
45252;SDS011;63171;50.520;30.486;2024-03-02T04:54:52;39.20;;;29.70;;
45252;SDS011;63171;50.520;30.486;2024-03-02T04:55:59;34.03;;;26.33;;
45252;SDS011;63171;50.520;30.486;2024-03-02T04:57:28;39.45;;;26.70;;
45252;SDS011;63171;50.520;30.486;2024-03-02T04:58:18;43.92;;;31.05;;
45252;SDS011;63171;50.520;30.486;2024-03-02T04:59:08;39.50;;;27.38;;
45252;SDS011;63171;50.520;30.486;2024-03-02T04:59:58;33.75;;;25.77;;
45252;SDS011;63171;50.520;30.486;2024-03-02T05:00:48;34.08;;;26.23;;
45252;SDS011;63171;50.520;30.486;2024-03-02T05:01:39;33.22;;;26.17;;
45252;SDS011;63171;50.520;30.486;2024-03-02T05:02:29;33.92;;;25.80;;